sensor_id;sensor_type;location;lat;lon;timestamp;P1;durP1;ratioP1;P2;durP2;ratioP2
35993;SDS011;22066;54.274;18.578;2023-04-15T00:01:42;17.23;;;9.55;;
35993;SDS011;22066;54.274;18.578;2023-04-15T00:04:09;18.58;;;9.93;;
35993;SDS011;22066;54.274;18.578;2023-04-15T00:06:35;16.17;;;9.15;;
35993;SDS011;22066;54.274;18.578;2023-04-15T00:11:29;39.03;;;17.75;;
35993;SDS011;22066;54.274;18.578;2023-04-15T00:13:55;192.63;;;65.38;;
35993;SDS011;22066;54.274;18.578;2023-04-15T00:16:22;189.50;;;60.30;;
35993;SDS011;22066;54.274;18.578;2023-04-15T00:18:48;52.90;;;22.50;;
35993;SDS011;22066;54.274;18.578;2023-04-15T00:21:15;37.55;;;15.25;;
35993;SDS011;22066;54.274;18.578;2023-04-15T00:23:41;27.02;;;13.13;;
35993;SDS011;22066;54.274;18.578;2023-04-15T00:26:08;27.77;;;12.93;;
35993;SDS011;22066;54.274;18.578;2023-04-15T00:28:34;18.15;;;10.70;;
35993;SDS011;22066;54.274;18.578;2023-04-15T00:31:00;21.65;;;12.10;;
35993;SDS011;22066;54.274;18.578;2023-04-15T00:33:26;19.98;;;10.45;;
35993;SDS011;22066;54.274;18.578;2023-04-15T00:35:52;22.33;;;10.88;;
35993;SDS011;22066;54.274;18.578;2023-04-15T00:38:18;17.00;;;10.38;;
35993;SDS011;22066;54.274;18.578;2023-04-15T00:40:44;19.67;;;10.27;;
35993;SDS011;22066;54.274;18.578;2023-04-15T00:43:10;17.35;;;10.25;;
35993;SDS011;22066;54.274;18.578;2023-04-15T00:45:36;21.33;;;10.23;;
35993;SDS011;22066;54.274;18.578;2023-04-15T00:48:02;21.80;;;10.00;;
35993;SDS011;22066;54.274;18.578;2023-04-15T00:50:29;17.55;;;9.82;;
35993;SDS011;22066;54.274;18.578;2023-04-15T00:52:55;17.52;;;9.45;;
35993;SDS011;22066;54.274;18.578;2023-04-15T00:55:21;17.08;;;11.00;;
35993;SDS011;22066;54.274;18.578;2023-04-15T00:57:47;18.40;;;9.50;;
35993;SDS011;22066;54.274;18.578;2023-04-15T01:00:13;17.83;;;9.23;;
35993;SDS011;22066;54.274;18.578;2023-04-15T01:02:40;20.85;;;10.75;;
35993;SDS011;22066;54.274;18.578;2023-04-15T01:05:06;17.75;;;9.98;;
35993;SDS011;22066;54.274;18.578;2023-04-15T01:07:33;14.93;;;8.88;;
35993;SDS011;22066;54.274;18.578;2023-04-15T01:09:59;18.00;;;10.00;;
35993;SDS011;22066;54.274;18.578;2023-04-15T01:12:26;15.80;;;8.55;;
35993;SDS011;22066;54.274;18.578;2023-04-15T01:14:53;14.50;;;9.10;;
35993;SDS011;22066;54.274;18.578;2023-04-15T01:17:19;18.40;;;10.55;;
35993;SDS011;22066;54.274;18.578;2023-04-15T01:19:45;18.55;;;9.75;;
35993;SDS011;22066;54.274;18.578;2023-04-15T01:22:11;19.15;;;10.00;;
35993;SDS011;22066;54.274;18.578;2023-04-15T01:24:37;17.42;;;9.60;;
35993;SDS011;22066;54.274;18.578;2023-04-15T01:27:04;16.52;;;9.25;;
35993;SDS011;22066;54.274;18.578;2023-04-15T01:29:31;16.25;;;9.35;;
35993;SDS011;22066;54.274;18.578;2023-04-15T01:31:57;16.58;;;9.60;;
35993;SDS011;22066;54.274;18.578;2023-04-15T01:34:23;15.10;;;9.25;;
35993;SDS011;22066;54.274;18.578;2023-04-15T01:36:49;17.60;;;9.98;;
35993;SDS011;22066;54.274;18.578;2023-04-15T01:39:15;16.95;;;9.20;;
35993;SDS011;22066;54.274;18.578;2023-04-15T01:41:41;16.92;;;9.55;;
35993;SDS011;22066;54.274;18.578;2023-04-15T01:44:08;17.10;;;10.02;;
35993;SDS011;22066;54.274;18.578;2023-04-15T01:46:34;16.05;;;9.48;;
35993;SDS011;22066;54.274;18.578;2023-04-15T01:49:00;16.67;;;9.40;;
35993;SDS011;22066;54.274;18.578;2023-04-15T01:51:26;16.77;;;10.00;;
35993;SDS011;22066;54.274;18.578;2023-04-15T01:53:52;22.20;;;10.90;;
35993;SDS011;22066;54.274;18.578;2023-04-15T01:56:21;16.48;;;9.63;;
35993;SDS011;22066;54.274;18.578;2023-04-15T01:58:48;18.75;;;9.70;;
35993;SDS011;22066;54.274;18.578;2023-04-15T02:01:15;16.55;;;9.18;;
35993;SDS011;22066;54.274;18.578;2023-04-15T02:03:43;17.50;;;9.52;;
35993;SDS011;22066;54.274;18.578;2023-04-15T02:06:09;17.52;;;10.00;;
35993;SDS011;22066;54.274;18.578;2023-04-15T02:08:36;15.95;;;9.63;;
35993;SDS011;22066;54.274;18.578;2023-04-15T02:11:02;18.98;;;9.93;;
35993;SDS011;22066;54.274;18.578;2023-04-15T02:13:28;17.73;;;9.45;;
35993;SDS011;22066;54.274;18.578;2023-04-15T02:15:54;18.63;;;10.55;;
35993;SDS011;22066;54.274;18.578;2023-04-15T02:18:20;18.58;;;10.15;;
35993;SDS011;22066;54.274;18.578;2023-04-15T02:20:47;15.85;;;9.38;;
35993;SDS011;22066;54.274;18.578;2023-04-15T02:23:13;19.67;;;10.52;;
35993;SDS011;22066;54.274;18.578;2023-04-15T02:25:39;18.10;;;10.15;;
35993;SDS011;22066;54.274;18.578;2023-04-15T02:28:05;16.38;;;10.10;;
35993;SDS011;22066;54.274;18.578;2023-04-15T02:33:35;15.77;;;9.65;;
35993;SDS011;22066;54.274;18.578;2023-04-15T02:36:01;16.98;;;10.02;;
35993;SDS011;22066;54.274;18.578;2023-04-15T02:38:28;17.95;;;9.60;;
35993;SDS011;22066;54.274;18.578;2023-04-15T02:40:55;17.83;;;10.25;;
35993;SDS011;22066;54.274;18.578;2023-04-15T02:43:22;17.40;;;9.93;;
35993;SDS011;22066;54.274;18.578;2023-04-15T02:45:48;17.90;;;10.45;;
35993;SDS011;22066;54.274;18.578;2023-04-15T02:48:15;23.00;;;11.00;;
35993;SDS011;22066;54.274;18.578;2023-04-15T02:50:43;16.35;;;9.73;;
35993;SDS011;22066;54.274;18.578;2023-04-15T02:53:09;18.77;;;9.82;;
35993;SDS011;22066;54.274;18.578;2023-04-15T02:55:35;17.75;;;10.18;;
35993;SDS011;22066;54.274;18.578;2023-04-15T02:58:01;16.77;;;10.95;;
35993;SDS011;22066;54.274;18.578;2023-04-15T03:00:27;18.95;;;11.00;;
35993;SDS011;22066;54.274;18.578;2023-04-15T03:02:57;16.25;;;9.85;;
35993;SDS011;22066;54.274;18.578;2023-04-15T03:05:23;17.50;;;10.18;;
35993;SDS011;22066;54.274;18.578;2023-04-15T03:07:52;18.35;;;9.70;;
35993;SDS011;22066;54.274;18.578;2023-04-15T03:10:18;16.15;;;9.25;;
35993;SDS011;22066;54.274;18.578;2023-04-15T03:12:45;26.98;;;11.30;;
35993;SDS011;22066;54.274;18.578;2023-04-15T03:15:11;18.00;;;9.52;;
35993;SDS011;22066;54.274;18.578;2023-04-15T03:17:37;19.70;;;9.75;;
35993;SDS011;22066;54.274;18.578;2023-04-15T03:20:03;19.63;;;9.88;;
35993;SDS011;22066;54.274;18.578;2023-04-15T03:22:30;17.58;;;8.55;;
35993;SDS011;22066;54.274;18.578;2023-04-15T03:24:56;16.70;;;9.07;;
35993;SDS011;22066;54.274;18.578;2023-04-15T03:27:22;16.15;;;9.40;;
35993;SDS011;22066;54.274;18.578;2023-04-15T03:29:49;15.98;;;9.38;;
35993;SDS011;22066;54.274;18.578;2023-04-15T03:32:15;18.85;;;10.23;;
35993;SDS011;22066;54.274;18.578;2023-04-15T03:34:41;17.58;;;9.85;;
35993;SDS011;22066;54.274;18.578;2023-04-15T03:37:07;16.48;;;9.32;;
35993;SDS011;22066;54.274;18.578;2023-04-15T03:39:34;17.52;;;9.88;;
35993;SDS011;22066;54.274;18.578;2023-04-15T03:42:00;16.38;;;9.95;;
35993;SDS011;22066;54.274;18.578;2023-04-15T03:44:27;20.27;;;9.73;;
35993;SDS011;22066;54.274;18.578;2023-04-15T03:46:53;16.67;;;9.45;;
35993;SDS011;22066;54.274;18.578;2023-04-15T03:49:19;17.35;;;9.27;;
35993;SDS011;22066;54.274;18.578;2023-04-15T03:51:46;17.63;;;9.73;;
35993;SDS011;22066;54.274;18.578;2023-04-15T03:54:13;21.45;;;9.27;;
35993;SDS011;22066;54.274;18.578;2023-04-15T03:56:39;17.02;;;10.50;;
35993;SDS011;22066;54.274;18.578;2023-04-15T03:59:05;17.95;;;9.38;;
35993;SDS011;22066;54.274;18.578;2023-04-15T04:01:31;17.38;;;10.40;;
35993;SDS011;22066;54.274;18.578;2023-04-15T04:03:57;17.05;;;8.77;;
35993;SDS011;22066;54.274;18.578;2023-04-15T04:06:23;21.13;;;9.98;;
35993;SDS011;22066;54.274;18.578;2023-04-15T04:08:50;16.13;;;9.93;;
35993;SDS011;22066;54.274;18.578;2023-04-15T04:11:16;17.30;;;9.77;;
35993;SDS011;22066;54.274;18.578;2023-04-15T04:13:42;16.73;;;9.13;;
35993;SDS011;22066;54.274;18.578;2023-04-15T04:16:08;18.15;;;9.55;;
35993;SDS011;22066;54.274;18.578;2023-04-15T04:18:34;18.77;;;9.52;;
35993;SDS011;22066;54.274;18.578;2023-04-15T04:21:01;14.30;;;9.32;;
35993;SDS011;22066;54.274;18.578;2023-04-15T04:23:27;16.08;;;9.70;;
35993;SDS011;22066;54.274;18.578;2023-04-15T04:25:53;18.13;;;9.63;;
35993;SDS011;22066;54.274;18.578;2023-04-15T04:28:19;16.77;;;8.98;;
35993;SDS011;22066;54.274;18.578;2023-04-15T04:30:45;17.30;;;9.60;;
35993;SDS011;22066;54.274;18.578;2023-04-15T04:33:11;16.45;;;9.48;;
35993;SDS011;22066;54.274;18.578;2023-04-15T04:35:37;14.23;;;9.23;;
35993;SDS011;22066;54.274;18.578;2023-04-15T04:38:03;17.23;;;10.82;;
35993;SDS011;22066;54.274;18.578;2023-04-15T04:40:29;16.90;;;9.88;;
35993;SDS011;22066;54.274;18.578;2023-04-15T04:42:55;16.83;;;9.60;;
35993;SDS011;22066;54.274;18.578;2023-04-15T04:45:22;19.67;;;9.98;;
35993;SDS011;22066;54.274;18.578;2023-04-15T04:47:48;18.23;;;10.10;;
35993;SDS011;22066;54.274;18.578;2023-04-15T04:50:14;19.15;;;10.48;;
35993;SDS011;22066;54.274;18.578;2023-04-15T04:52:40;17.10;;;9.85;;
35993;SDS011;22066;54.274;18.578;2023-04-15T04:55:06;16.05;;;8.82;;
35993;SDS011;22066;54.274;18.578;2023-04-15T04:57:33;20.70;;;11.02;;
35993;SDS011;22066;54.274;18.578;2023-04-15T05:00:03;21.63;;;10.02;;
35993;SDS011;22066;54.274;18.578;2023-04-15T05:02:29;19.70;;;10.02;;
35993;SDS011;22066;54.274;18.578;2023-04-15T05:04:56;18.88;;;9.65;;
35993;SDS011;22066;54.274;18.578;2023-04-15T05:07:22;20.13;;;11.07;;
35993;SDS011;22066;54.274;18.578;2023-04-15T05:09:48;21.83;;;11.18;;
35993;SDS011;22066;54.274;18.578;2023-04-15T05:12:14;19.00;;;10.75;;
35993;SDS011;22066;54.274;18.578;2023-04-15T05:14:42;23.08;;;10.30;;
35993;SDS011;22066;54.274;18.578;2023-04-15T05:17:08;20.42;;;10.40;;
35993;SDS011;22066;54.274;18.578;2023-04-15T05:19:35;17.75;;;10.90;;
35993;SDS011;22066;54.274;18.578;2023-04-15T05:22:01;19.05;;;10.90;;
35993;SDS011;22066;54.274;18.578;2023-04-15T05:24:27;21.17;;;11.45;;
35993;SDS011;22066;54.274;18.578;2023-04-15T05:26:53;18.05;;;10.15;;
35993;SDS011;22066;54.274;18.578;2023-04-15T05:29:20;21.77;;;11.20;;
35993;SDS011;22066;54.274;18.578;2023-04-15T05:31:46;16.23;;;10.43;;
35993;SDS011;22066;54.274;18.578;2023-04-15T05:34:12;17.80;;;10.70;;
35993;SDS011;22066;54.274;18.578;2023-04-15T05:36:40;17.05;;;10.10;;
35993;SDS011;22066;54.274;18.578;2023-04-15T05:39:06;16.40;;;8.90;;
35993;SDS011;22066;54.274;18.578;2023-04-15T05:41:33;18.98;;;10.13;;
35993;SDS011;22066;54.274;18.578;2023-04-15T05:43:59;17.40;;;9.57;;
35993;SDS011;22066;54.274;18.578;2023-04-15T05:46:25;18.20;;;10.25;;
35993;SDS011;22066;54.274;18.578;2023-04-15T05:48:51;18.92;;;10.10;;
35993;SDS011;22066;54.274;18.578;2023-04-15T05:51:17;17.70;;;10.30;;
35993;SDS011;22066;54.274;18.578;2023-04-15T05:53:43;18.67;;;9.73;;
35993;SDS011;22066;54.274;18.578;2023-04-15T05:56:10;18.42;;;10.13;;
35993;SDS011;22066;54.274;18.578;2023-04-15T05:58:36;17.13;;;9.82;;
35993;SDS011;22066;54.274;18.578;2023-04-15T06:01:02;18.23;;;8.88;;
35993;SDS011;22066;54.274;18.578;2023-04-15T06:03:28;19.02;;;10.00;;
35993;SDS011;22066;54.274;18.578;2023-04-15T06:05:54;17.40;;;9.32;;
35993;SDS011;22066;54.274;18.578;2023-04-15T06:08:20;19.90;;;10.63;;
35993;SDS011;22066;54.274;18.578;2023-04-15T06:10:46;17.88;;;9.43;;
35993;SDS011;22066;54.274;18.578;2023-04-15T06:13:12;18.83;;;10.52;;
35993;SDS011;22066;54.274;18.578;2023-04-15T06:15:38;18.08;;;9.52;;
35993;SDS011;22066;54.274;18.578;2023-04-15T06:18:05;20.00;;;9.40;;
35993;SDS011;22066;54.274;18.578;2023-04-15T06:20:31;16.83;;;10.10;;
35993;SDS011;22066;54.274;18.578;2023-04-15T06:22:57;17.30;;;9.63;;
35993;SDS011;22066;54.274;18.578;2023-04-15T06:25:23;17.20;;;9.52;;
35993;SDS011;22066;54.274;18.578;2023-04-15T06:27:49;17.73;;;10.50;;
35993;SDS011;22066;54.274;18.578;2023-04-15T06:30:15;21.27;;;11.48;;
35993;SDS011;22066;54.274;18.578;2023-04-15T06:32:41;16.40;;;10.25;;
35993;SDS011;22066;54.274;18.578;2023-04-15T06:35:07;17.33;;;10.10;;
35993;SDS011;22066;54.274;18.578;2023-04-15T06:37:34;21.15;;;10.65;;
35993;SDS011;22066;54.274;18.578;2023-04-15T06:40:00;17.35;;;10.00;;
35993;SDS011;22066;54.274;18.578;2023-04-15T06:42:26;17.50;;;9.50;;
35993;SDS011;22066;54.274;18.578;2023-04-15T06:44:52;16.75;;;9.70;;
35993;SDS011;22066;54.274;18.578;2023-04-15T06:47:18;13.95;;;9.65;;
35993;SDS011;22066;54.274;18.578;2023-04-15T06:49:45;16.08;;;9.68;;
35993;SDS011;22066;54.274;18.578;2023-04-15T06:52:11;17.55;;;11.40;;
35993;SDS011;22066;54.274;18.578;2023-04-15T06:54:37;21.05;;;10.18;;
35993;SDS011;22066;54.274;18.578;2023-04-15T06:57:03;16.83;;;10.13;;
35993;SDS011;22066;54.274;18.578;2023-04-15T06:59:29;19.17;;;10.23;;
35993;SDS011;22066;54.274;18.578;2023-04-15T07:01:55;15.95;;;9.93;;
35993;SDS011;22066;54.274;18.578;2023-04-15T07:04:21;18.15;;;9.13;;
35993;SDS011;22066;54.274;18.578;2023-04-15T07:06:48;21.85;;;10.02;;
35993;SDS011;22066;54.274;18.578;2023-04-15T07:09:14;14.23;;;8.38;;
35993;SDS011;22066;54.274;18.578;2023-04-15T07:11:40;15.52;;;9.15;;
35993;SDS011;22066;54.274;18.578;2023-04-15T07:14:06;17.30;;;9.57;;
35993;SDS011;22066;54.274;18.578;2023-04-15T07:16:32;16.48;;;8.93;;
35993;SDS011;22066;54.274;18.578;2023-04-15T07:18:58;15.93;;;9.07;;
35993;SDS011;22066;54.274;18.578;2023-04-15T07:21:24;16.08;;;8.30;;
35993;SDS011;22066;54.274;18.578;2023-04-15T07:23:51;13.18;;;7.85;;
35993;SDS011;22066;54.274;18.578;2023-04-15T07:26:17;15.50;;;9.10;;
35993;SDS011;22066;54.274;18.578;2023-04-15T07:28:43;20.90;;;8.43;;
35993;SDS011;22066;54.274;18.578;2023-04-15T07:31:11;17.30;;;9.20;;
35993;SDS011;22066;54.274;18.578;2023-04-15T07:33:37;18.27;;;8.05;;
35993;SDS011;22066;54.274;18.578;2023-04-15T07:36:03;13.70;;;8.77;;
35993;SDS011;22066;54.274;18.578;2023-04-15T07:38:29;15.57;;;9.32;;
35993;SDS011;22066;54.274;18.578;2023-04-15T07:40:55;14.10;;;8.10;;
35993;SDS011;22066;54.274;18.578;2023-04-15T07:43:22;12.05;;;7.57;;
35993;SDS011;22066;54.274;18.578;2023-04-15T07:45:48;19.48;;;8.55;;
35993;SDS011;22066;54.274;18.578;2023-04-15T07:48:14;15.50;;;8.25;;
35993;SDS011;22066;54.274;18.578;2023-04-15T07:50:40;24.65;;;9.68;;
35993;SDS011;22066;54.274;18.578;2023-04-15T07:53:06;15.88;;;7.10;;
35993;SDS011;22066;54.274;18.578;2023-04-15T07:55:33;12.73;;;6.75;;
35993;SDS011;22066;54.274;18.578;2023-04-15T07:57:59;39.03;;;8.32;;
35993;SDS011;22066;54.274;18.578;2023-04-15T08:00:25;14.32;;;6.75;;
35993;SDS011;22066;54.274;18.578;2023-04-15T08:02:52;16.05;;;7.07;;
35993;SDS011;22066;54.274;18.578;2023-04-15T08:05:18;15.15;;;7.80;;
35993;SDS011;22066;54.274;18.578;2023-04-15T08:07:44;14.02;;;7.03;;
35993;SDS011;22066;54.274;18.578;2023-04-15T08:10:10;25.42;;;8.73;;
35993;SDS011;22066;54.274;18.578;2023-04-15T08:12:37;19.25;;;8.02;;
35993;SDS011;22066;54.274;18.578;2023-04-15T08:15:03;15.50;;;8.27;;
35993;SDS011;22066;54.274;18.578;2023-04-15T08:17:29;12.52;;;7.57;;
35993;SDS011;22066;54.274;18.578;2023-04-15T08:19:55;12.35;;;6.88;;
35993;SDS011;22066;54.274;18.578;2023-04-15T08:22:21;23.17;;;7.40;;
35993;SDS011;22066;54.274;18.578;2023-04-15T08:24:48;12.93;;;5.80;;
35993;SDS011;22066;54.274;18.578;2023-04-15T08:27:14;10.20;;;6.22;;
35993;SDS011;22066;54.274;18.578;2023-04-15T08:29:40;12.35;;;6.47;;
35993;SDS011;22066;54.274;18.578;2023-04-15T08:32:06;11.32;;;5.88;;
35993;SDS011;22066;54.274;18.578;2023-04-15T08:34:32;16.02;;;6.63;;
35993;SDS011;22066;54.274;18.578;2023-04-15T08:37:00;10.23;;;5.57;;
35993;SDS011;22066;54.274;18.578;2023-04-15T08:39:26;14.88;;;6.22;;
35993;SDS011;22066;54.274;18.578;2023-04-15T08:41:59;9.82;;;5.88;;
35993;SDS011;22066;54.274;18.578;2023-04-15T08:44:27;7.50;;;4.35;;
35993;SDS011;22066;54.274;18.578;2023-04-15T08:46:55;17.05;;;6.10;;
35993;SDS011;22066;54.274;18.578;2023-04-15T08:49:21;12.07;;;5.15;;
35993;SDS011;22066;54.274;18.578;2023-04-15T08:51:52;15.98;;;5.57;;
35993;SDS011;22066;54.274;18.578;2023-04-15T08:54:20;11.23;;;5.63;;
35993;SDS011;22066;54.274;18.578;2023-04-15T08:56:46;7.40;;;4.38;;
35993;SDS011;22066;54.274;18.578;2023-04-15T08:59:13;9.38;;;4.93;;
35993;SDS011;22066;54.274;18.578;2023-04-15T09:01:40;15.48;;;5.40;;
35993;SDS011;22066;54.274;18.578;2023-04-15T09:04:06;9.35;;;5.35;;
35993;SDS011;22066;54.274;18.578;2023-04-15T09:06:33;10.18;;;5.47;;
35993;SDS011;22066;54.274;18.578;2023-04-15T09:08:59;12.95;;;5.80;;
35993;SDS011;22066;54.274;18.578;2023-04-15T09:11:25;10.50;;;5.20;;
35993;SDS011;22066;54.274;18.578;2023-04-15T09:13:51;10.13;;;5.35;;
35993;SDS011;22066;54.274;18.578;2023-04-15T09:16:17;12.00;;;5.80;;
35993;SDS011;22066;54.274;18.578;2023-04-15T09:18:44;11.55;;;5.63;;
35993;SDS011;22066;54.274;18.578;2023-04-15T09:21:11;11.68;;;5.90;;
35993;SDS011;22066;54.274;18.578;2023-04-15T09:23:38;12.65;;;6.57;;
35993;SDS011;22066;54.274;18.578;2023-04-15T09:26:05;10.30;;;5.78;;
35993;SDS011;22066;54.274;18.578;2023-04-15T09:28:31;9.63;;;5.60;;
35993;SDS011;22066;54.274;18.578;2023-04-15T09:31:00;14.63;;;5.80;;
35993;SDS011;22066;54.274;18.578;2023-04-15T09:33:27;8.95;;;5.75;;
35993;SDS011;22066;54.274;18.578;2023-04-15T09:35:56;15.70;;;7.13;;
35993;SDS011;22066;54.274;18.578;2023-04-15T09:38:23;16.17;;;6.07;;
35993;SDS011;22066;54.274;18.578;2023-04-15T09:40:49;12.57;;;6.43;;
35993;SDS011;22066;54.274;18.578;2023-04-15T09:43:15;11.63;;;5.68;;
35993;SDS011;22066;54.274;18.578;2023-04-15T09:45:49;12.05;;;6.18;;
35993;SDS011;22066;54.274;18.578;2023-04-15T09:48:22;11.75;;;5.20;;
35993;SDS011;22066;54.274;18.578;2023-04-15T09:50:51;13.60;;;5.97;;
35993;SDS011;22066;54.274;18.578;2023-04-15T09:53:22;10.75;;;6.53;;
35993;SDS011;22066;54.274;18.578;2023-04-15T09:55:52;10.25;;;5.55;;
35993;SDS011;22066;54.274;18.578;2023-04-15T09:58:25;12.50;;;6.10;;
35993;SDS011;22066;54.274;18.578;2023-04-15T10:00:52;13.73;;;6.93;;
35993;SDS011;22066;54.274;18.578;2023-04-15T10:03:19;11.45;;;5.85;;
35993;SDS011;22066;54.274;18.578;2023-04-15T10:05:50;13.18;;;5.88;;
35993;SDS011;22066;54.274;18.578;2023-04-15T10:08:17;11.10;;;6.03;;
35993;SDS011;22066;54.274;18.578;2023-04-15T10:10:44;12.60;;;6.40;;
35993;SDS011;22066;54.274;18.578;2023-04-15T10:13:12;8.20;;;5.32;;
35993;SDS011;22066;54.274;18.578;2023-04-15T10:15:38;11.15;;;5.90;;
35993;SDS011;22066;54.274;18.578;2023-04-15T10:18:04;10.88;;;5.53;;
35993;SDS011;22066;54.274;18.578;2023-04-15T10:20:32;10.10;;;5.82;;
35993;SDS011;22066;54.274;18.578;2023-04-15T10:22:59;10.98;;;6.45;;
35993;SDS011;22066;54.274;18.578;2023-04-15T10:25:26;10.00;;;5.32;;
35993;SDS011;22066;54.274;18.578;2023-04-15T10:27:52;13.00;;;7.05;;
35993;SDS011;22066;54.274;18.578;2023-04-15T10:30:18;11.70;;;6.38;;
35993;SDS011;22066;54.274;18.578;2023-04-15T10:32:45;11.68;;;5.55;;
35993;SDS011;22066;54.274;18.578;2023-04-15T10:35:11;11.07;;;6.07;;
35993;SDS011;22066;54.274;18.578;2023-04-15T10:37:37;14.10;;;6.38;;
35993;SDS011;22066;54.274;18.578;2023-04-15T10:42:48;12.82;;;6.03;;
35993;SDS011;22066;54.274;18.578;2023-04-15T10:45:17;8.85;;;4.82;;
35993;SDS011;22066;54.274;18.578;2023-04-15T10:47:44;15.80;;;7.80;;
35993;SDS011;22066;54.274;18.578;2023-04-15T10:50:10;8.73;;;5.47;;
35993;SDS011;22066;54.274;18.578;2023-04-15T10:52:38;9.32;;;5.13;;
35993;SDS011;22066;54.274;18.578;2023-04-15T10:57:37;11.20;;;4.68;;
35993;SDS011;22066;54.274;18.578;2023-04-15T11:02:40;11.07;;;5.35;;
35993;SDS011;22066;54.274;18.578;2023-04-15T11:05:06;9.88;;;6.00;;
35993;SDS011;22066;54.274;18.578;2023-04-15T11:07:36;7.88;;;4.20;;
35993;SDS011;22066;54.274;18.578;2023-04-15T11:10:11;10.18;;;4.97;;
35993;SDS011;22066;54.274;18.578;2023-04-15T11:12:50;9.35;;;5.25;;
35993;SDS011;22066;54.274;18.578;2023-04-15T11:17:53;32.05;;;8.10;;
35993;SDS011;22066;54.274;18.578;2023-04-15T11:20:20;16.80;;;5.83;;
35993;SDS011;22066;54.274;18.578;2023-04-15T11:22:47;8.40;;;5.05;;
35993;SDS011;22066;54.274;18.578;2023-04-15T11:25:23;9.85;;;6.28;;
35993;SDS011;22066;54.274;18.578;2023-04-15T11:27:50;10.52;;;5.70;;
35993;SDS011;22066;54.274;18.578;2023-04-15T11:30:24;11.35;;;5.95;;
35993;SDS011;22066;54.274;18.578;2023-04-15T11:32:51;10.00;;;5.63;;
35993;SDS011;22066;54.274;18.578;2023-04-15T11:35:18;10.95;;;6.20;;
35993;SDS011;22066;54.274;18.578;2023-04-15T11:37:44;8.82;;;5.50;;
35993;SDS011;22066;54.274;18.578;2023-04-15T11:40:10;13.18;;;5.88;;
35993;SDS011;22066;54.274;18.578;2023-04-15T11:42:37;11.25;;;6.00;;
35993;SDS011;22066;54.274;18.578;2023-04-15T11:45:10;15.85;;;7.18;;
35993;SDS011;22066;54.274;18.578;2023-04-15T11:47:36;11.57;;;6.72;;
35993;SDS011;22066;54.274;18.578;2023-04-15T11:53:00;23.05;;;6.45;;
35993;SDS011;22066;54.274;18.578;2023-04-15T11:55:27;11.48;;;5.82;;
35993;SDS011;22066;54.274;18.578;2023-04-15T11:58:10;12.60;;;7.00;;
35993;SDS011;22066;54.274;18.578;2023-04-15T12:00:36;11.15;;;5.55;;
35993;SDS011;22066;54.274;18.578;2023-04-15T12:03:10;11.10;;;5.82;;
35993;SDS011;22066;54.274;18.578;2023-04-15T12:05:36;11.10;;;5.47;;
35993;SDS011;22066;54.274;18.578;2023-04-15T12:08:22;10.13;;;6.22;;
35993;SDS011;22066;54.274;18.578;2023-04-15T12:10:48;10.15;;;5.97;;
35993;SDS011;22066;54.274;18.578;2023-04-15T12:13:14;11.30;;;6.30;;
35993;SDS011;22066;54.274;18.578;2023-04-15T12:15:40;13.77;;;6.63;;
35993;SDS011;22066;54.274;18.578;2023-04-15T12:18:15;15.43;;;6.20;;
35993;SDS011;22066;54.274;18.578;2023-04-15T12:20:44;10.07;;;5.28;;
35993;SDS011;22066;54.274;18.578;2023-04-15T12:23:11;8.98;;;5.45;;
35993;SDS011;22066;54.274;18.578;2023-04-15T12:25:37;11.60;;;6.38;;
35993;SDS011;22066;54.274;18.578;2023-04-15T12:28:09;10.55;;;5.70;;
35993;SDS011;22066;54.274;18.578;2023-04-15T12:30:36;11.98;;;6.78;;
35993;SDS011;22066;54.274;18.578;2023-04-15T12:33:02;11.05;;;6.05;;
35993;SDS011;22066;54.274;18.578;2023-04-15T12:35:28;12.43;;;6.47;;
35993;SDS011;22066;54.274;18.578;2023-04-15T12:37:54;12.20;;;6.72;;
35993;SDS011;22066;54.274;18.578;2023-04-15T12:40:21;13.80;;;6.70;;
35993;SDS011;22066;54.274;18.578;2023-04-15T12:42:47;12.50;;;6.80;;
35993;SDS011;22066;54.274;18.578;2023-04-15T12:45:13;12.65;;;7.05;;
35993;SDS011;22066;54.274;18.578;2023-04-15T12:47:39;13.38;;;7.43;;
35993;SDS011;22066;54.274;18.578;2023-04-15T12:50:05;12.70;;;7.28;;
35993;SDS011;22066;54.274;18.578;2023-04-15T12:52:31;13.30;;;6.80;;
35993;SDS011;22066;54.274;18.578;2023-04-15T12:54:57;13.45;;;7.78;;
35993;SDS011;22066;54.274;18.578;2023-04-15T12:57:24;16.67;;;8.98;;
35993;SDS011;22066;54.274;18.578;2023-04-15T12:59:50;12.52;;;7.32;;
35993;SDS011;22066;54.274;18.578;2023-04-15T13:02:16;13.07;;;7.53;;
35993;SDS011;22066;54.274;18.578;2023-04-15T13:04:42;10.48;;;6.25;;
35993;SDS011;22066;54.274;18.578;2023-04-15T13:07:08;10.93;;;5.80;;
35993;SDS011;22066;54.274;18.578;2023-04-15T13:09:37;10.25;;;5.88;;
35993;SDS011;22066;54.274;18.578;2023-04-15T13:12:03;13.10;;;7.03;;
35993;SDS011;22066;54.274;18.578;2023-04-15T13:14:29;12.07;;;5.93;;
35993;SDS011;22066;54.274;18.578;2023-04-15T13:16:55;13.88;;;7.47;;
35993;SDS011;22066;54.274;18.578;2023-04-15T13:19:22;11.75;;;6.43;;
35993;SDS011;22066;54.274;18.578;2023-04-15T13:21:48;11.45;;;5.40;;
35993;SDS011;22066;54.274;18.578;2023-04-15T13:24:14;11.82;;;5.95;;
35993;SDS011;22066;54.274;18.578;2023-04-15T13:26:40;9.88;;;6.35;;
35993;SDS011;22066;54.274;18.578;2023-04-15T13:29:06;13.85;;;6.93;;
35993;SDS011;22066;54.274;18.578;2023-04-15T13:31:32;13.05;;;6.35;;
35993;SDS011;22066;54.274;18.578;2023-04-15T13:33:58;16.02;;;6.80;;
35993;SDS011;22066;54.274;18.578;2023-04-15T13:36:24;12.48;;;6.43;;
35993;SDS011;22066;54.274;18.578;2023-04-15T13:38:51;14.38;;;6.07;;
35993;SDS011;22066;54.274;18.578;2023-04-15T13:41:17;13.90;;;6.65;;
35993;SDS011;22066;54.274;18.578;2023-04-15T13:43:45;13.43;;;6.70;;
35993;SDS011;22066;54.274;18.578;2023-04-15T13:46:11;12.18;;;6.55;;
35993;SDS011;22066;54.274;18.578;2023-04-15T13:48:37;11.60;;;5.68;;
35993;SDS011;22066;54.274;18.578;2023-04-15T13:51:03;12.15;;;6.32;;
35993;SDS011;22066;54.274;18.578;2023-04-15T13:53:29;12.68;;;6.03;;
35993;SDS011;22066;54.274;18.578;2023-04-15T13:55:55;12.73;;;6.82;;
35993;SDS011;22066;54.274;18.578;2023-04-15T13:58:21;14.75;;;7.55;;
35993;SDS011;22066;54.274;18.578;2023-04-15T14:00:47;13.68;;;6.97;;
35993;SDS011;22066;54.274;18.578;2023-04-15T14:03:13;17.88;;;9.98;;
35993;SDS011;22066;54.274;18.578;2023-04-15T14:05:39;13.85;;;7.18;;
35993;SDS011;22066;54.274;18.578;2023-04-15T14:08:05;18.48;;;9.30;;
35993;SDS011;22066;54.274;18.578;2023-04-15T14:10:31;13.82;;;6.95;;
35993;SDS011;22066;54.274;18.578;2023-04-15T14:12:57;10.98;;;6.95;;
35993;SDS011;22066;54.274;18.578;2023-04-15T14:15:23;13.90;;;6.90;;
35993;SDS011;22066;54.274;18.578;2023-04-15T14:17:49;12.52;;;5.72;;
35993;SDS011;22066;54.274;18.578;2023-04-15T14:20:15;13.65;;;7.38;;
35993;SDS011;22066;54.274;18.578;2023-04-15T14:22:42;16.30;;;6.45;;
35993;SDS011;22066;54.274;18.578;2023-04-15T14:25:08;11.18;;;6.30;;
35993;SDS011;22066;54.274;18.578;2023-04-15T14:27:34;14.77;;;6.93;;
35993;SDS011;22066;54.274;18.578;2023-04-15T14:30:00;20.05;;;8.50;;
35993;SDS011;22066;54.274;18.578;2023-04-15T14:32:26;20.45;;;9.23;;
35993;SDS011;22066;54.274;18.578;2023-04-15T14:34:52;18.48;;;9.68;;